Gainesville, FL

3:33 AM EDT on March 27, 2015 (GMT -0400)
Cross City | | Change Station
CLOSE
Current Station
Airport
Location: Cross City,
Elevation: 43 ft
Nearby Weather Stations

Elev 43 ft 29.64 °N, 83.10 °W | Updated 40 minutes ago

Rain
Rain
67 °F
Feels Like 67 °F
N
8
Wind Variable Wind from SW
Gusts 20 mph

Today
High -- | Low -- °F
--% Chance of Precip.
Yesterday
High -- | Low -- °F
Precip. -- in
7:24 AM 7:44 PM
Waxing Crescent, 50% visible
Pressure 29.82 in
Visibility -9999.0 miles
Clouds
Dew Point 64 °F
Humidity 90%
Rainfall 0.18 in
Snow Depth Not available.
UV Not available.
Pollen 10.40 out of 12
Air Quality Not available.
Flu Activity Not available.
METAR KCTY 270653Z AUTO 22007G17KT 19/18 A2982 RMK AO1 SLP096 P0002 T01940178

More Conditions Fewer Conditions

Pressure 29.82 in
Visibility -9999.0 miles
Clouds
Dew Point 64 °F
Humidity 90%
Rainfall 0.18 in
Snow Depth Not available.
UV Not available.
Pollen 10.40 out of 12
Air Quality Not available.
Flu Activity Not available.
METAR KCTY 270653Z AUTO 22007G17KT 19/18 A2982 RMK AO1 SLP096 P0002 T01940178

More Conditions Fewer Conditions

10-Day Weather Forecast

Almanac

Astronomy

Mar. 27, 2015 Rise Set
Actual Time
Civil Twilight
Nautical Twilight
Astronomical Twilight
Moon
Length of Visible Light
Length of Day
Tomorrow will be .
, % of the Moon is Illuminated

Today's Extremes

State Highs State Lows

Community

WunderPhotos

Upload Photos

1,808,701 photos uploaded!

WunderBlogs® & News

Nearby

Air Quality

  Air Quality AQ Index Pollutant
Not available.

Snow Depth

Station Depth Elevation

Earthquake Activity

City Distance Mag. Time & Date
Minimum magnitude displayed is 2.5.

Coastal Water Temperatures

Place Temperature

Stations

Nearby Weather Stations

Station Location Temp. Windchill Dew Point Humidity Wind Precip. Elev Updated Type